Time;durP1;ratioP1;P1;durP2;ratioP2;P2;SDS_P1;SDS_P2;PMS_P1;PMS_P2;Temp;Humidity;BMP_temperature;BMP_pressure;BME280_temperature;BME280_humidity;BME280_pressure;Samples;Min_cycle;Max_cycle;Signal;HPM_P1;HPM_P2
2021/05/11 00:00:21;;;;;;;2.20;1.50;;;18.00;74.40;;;;;;3543982;40;20034;-67
2021/05/11 00:02:47;;;;;;;2.58;1.70;;;17.90;74.60;;;;;;3543642;40;20045;-67
2021/05/11 00:05:14;;;;;;;3.13;1.67;;;17.90;74.70;;;;;;3542514;40;20049;-66
2021/05/11 00:07:40;;;;;;;6.40;2.15;;;17.90;74.50;;;;;;3543334;40;20029;-66
2021/05/11 00:10:06;;;;;;;4.03;1.80;;;17.90;74.00;;;;;;3545285;40;20041;-67
2021/05/11 00:12:32;;;;;;;3.92;1.63;;;17.90;74.40;;;;;;3544176;40;20058;-67
2021/05/11 00:14:57;;;;;;;3.38;1.70;;;17.90;74.60;;;;;;3545914;40;20045;-67
2021/05/11 00:17:23;;;;;;;2.17;1.70;;;18.00;74.70;;;;;;3544519;40;20046;-66
2021/05/11 00:19:49;;;;;;;2.85;1.60;;;17.90;74.30;;;;;;3542810;40;20408;-67
2021/05/11 00:22:14;;;;;;;4.00;1.77;;;17.90;72.80;;;;;;3542488;40;20030;-68
2021/05/11 00:24:40;;;;;;;2.17;1.63;;;18.00;73.60;;;;;;3547565;40;20046;-67
2021/05/11 00:27:06;;;;;;;2.53;1.73;;;18.00;74.00;;;;;;3544468;40;20116;-68
2021/05/11 00:29:32;;;;;;;1.65;1.52;;;17.90;74.10;;;;;;3546258;40;20121;-66
2021/05/11 00:31:57;;;;;;;3.72;1.45;;;17.90;74.50;;;;;;3543457;40;20434;-66
2021/05/11 00:34:23;;;;;;;3.75;1.70;;;17.90;74.20;;;;;;3546853;40;20033;-67
2021/05/11 00:36:48;;;;;;;3.90;1.52;;;17.90;74.30;;;;;;3548160;40;20026;-66
2021/05/11 00:39:14;;;;;;;4.03;1.63;;;17.90;74.80;;;;;;3545739;40;20034;-67
2021/05/11 00:41:40;;;;;;;3.13;1.77;;;17.90;73.70;;;;;;3546264;40;20103;-67
2021/05/11 00:44:23;;;;;;;4.45;1.67;;;17.90;74.10;;;;;;3545592;40;20050;-66
2021/05/11 00:46:57;;;;;;;2.33;1.58;;;17.80;74.80;;;;;;3548896;40;20458;-67
2021/05/11 00:49:24;;;;;;;3.65;1.73;;;17.80;74.60;;;;;;3544236;40;20042;-66
2021/05/11 00:51:51;;;;;;;2.20;1.48;;;17.80;74.90;;;;;;3543338;40;20033;-67
2021/05/11 00:54:17;;;;;;;1.73;1.40;;;17.80;73.90;;;;;;3543342;40;20375;-67
2021/05/11 00:56:44;;;;;;;2.38;1.42;;;17.80;74.70;;;;;;3543029;40;20038;-66
2021/05/11 00:59:16;;;;;;;3.05;1.58;;;17.80;74.60;;;;;;3545086;40;20422;-67
2021/05/11 01:01:41;;;;;;;2.45;1.50;;;17.70;74.60;;;;;;3544524;40;20097;-68
2021/05/11 01:04:07;;;;;;;5.03;1.73;;;17.70;74.70;;;;;;3543237;40;20034;-67
2021/05/11 01:06:33;;;;;;;4.07;1.73;;;17.60;75.20;;;;;;3543097;40;20026;-67
2021/05/11 01:08:59;;;;;;;3.95;1.52;;;17.50;75.70;;;;;;3543803;40;20049;-67
2021/05/11 01:11:24;;;;;;;1.75;1.60;;;17.50;75.70;;;;;;3546609;40;20283;-68
2021/05/11 01:13:51;;;;;;;2.10;1.48;;;17.40;75.90;;;;;;3547354;40;20028;-66
2021/05/11 01:16:16;;;;;;;2.13;1.52;;;17.40;75.30;;;;;;3545440;40;20046;-67
2021/05/11 01:18:42;;;;;;;3.53;1.42;;;17.40;75.50;;;;;;3546029;40;20128;-67
2021/05/11 01:21:27;;;;;;;2.70;1.50;;;17.50;75.90;;;;;;3543747;40;20068;-68
2021/05/11 01:24:02;;;;;;;2.72;1.42;;;17.50;75.50;;;;;;3547511;40;20045;-68
2021/05/11 01:48:17;;;;;;;1.60;1.23;;;17.60;73.40;;;;;;3544619;40;20425;-66
2021/05/11 01:55:49;;;;;;;1.20;1.10;;;17.60;74.00;;;;;;3544593;40;20034;-68
2021/05/11 01:58:46;;;;;;;2.10;1.33;;;17.70;73.90;;;;;;3544351;40;20064;-67
2021/05/11 02:23:24;;;;;;;3.47;1.23;;;17.60;74.60;;;;;;3546994;40;20165;-68
2021/05/11 02:25:50;;;;;;;2.17;1.45;;;17.60;74.80;;;;;;3544024;40;20094;-67
2021/05/11 02:28:15;;;;;;;2.03;1.27;;;17.60;74.80;;;;;;3543653;40;20108;-68
2021/05/11 02:30:41;;;;;;;2.67;1.30;;;17.60;74.80;;;;;;3544196;40;20042;-67
2021/05/11 02:33:07;;;;;;;1.23;1.13;;;17.50;74.80;;;;;;3544439;40;20043;-66
2021/05/11 02:35:34;;;;;;;1.48;1.30;;;17.50;74.90;;;;;;3544481;40;20039;-67
2021/05/11 02:38:00;;;;;;;4.93;1.35;;;17.50;75.30;;;;;;3544442;40;20030;-67
2021/05/11 02:40:26;;;;;;;1.90;1.50;;;17.50;75.10;;;;;;3548824;40;20030;-68
2021/05/11 02:43:05;;;;;;;1.45;1.35;;;17.50;75.40;;;;;;3544857;40;20078;-68
2021/05/11 02:45:32;;;;;;;3.97;1.63;;;17.50;75.00;;;;;;3545158;40;20034;-67
2021/05/11 02:47:58;;;;;;;1.60;1.50;;;17.50;75.40;;;;;;3544658;40;20047;-68
2021/05/11 02:50:26;;;;;;;2.80;1.52;;;17.50;75.10;;;;;;3547171;40;20594;-68
2021/05/11 02:52:52;;;;;;;3.65;1.40;;;17.50;75.40;;;;;;3546883;40;20026;-67
2021/05/11 02:55:19;;;;;;;2.00;1.30;;;17.50;75.50;;;;;;3545435;40;20057;-67
2021/05/11 02:57:45;;;;;;;5.57;1.65;;;17.40;75.90;;;;;;3548053;40;20724;-67
2021/05/11 03:00:13;;;;;;;2.35;1.50;;;17.40;76.00;;;;;;3547382;40;20064;-68
2021/05/11 03:02:39;;;;;;;2.15;1.50;;;17.40;75.90;;;;;;3546401;40;20093;-67
2021/05/11 03:05:05;;;;;;;1.55;1.25;;;17.40;76.00;;;;;;3547709;40;20042;-67
2021/05/11 03:07:31;;;;;;;1.95;1.33;;;17.40;76.50;;;;;;3543065;40;20040;-68
2021/05/11 03:09:58;;;;;;;2.67;1.75;;;17.30;76.70;;;;;;3546498;40;20033;-66
2021/05/11 03:12:24;;;;;;;2.40;1.40;;;17.40;76.70;;;;;;3544769;40;20032;-67
2021/05/11 03:14:50;;;;;;;3.58;1.30;;;17.40;76.40;;;;;;3544724;40;20058;-68
2021/05/11 03:17:16;;;;;;;2.55;1.65;;;17.40;76.30;;;;;;3543528;40;20030;-66
2021/05/11 03:19:42;;;;;;;1.60;1.50;;;17.40;76.40;;;;;;3546225;40;20470;-68
2021/05/11 03:22:08;;;;;;;1.42;1.33;;;17.50;76.20;;;;;;3543018;40;20046;-67
2021/05/11 03:24:38;;;;;;;2.65;1.42;;;17.40;76.10;;;;;;3547700;40;20392;-68
2021/05/11 03:27:05;;;;;;;1.95;1.10;;;17.50;75.90;;;;;;3543569;40;20829;-67
2021/05/11 03:29:31;;;;;;;1.90;1.13;;;17.40;76.20;;;;;;3539323;40;20050;-67
2021/05/11 03:31:57;;;;;;;1.95;1.50;;;17.40;76.10;;;;;;3541230;40;20069;-68
2021/05/11 03:34:22;;;;;;;2.42;1.60;;;17.40;74.60;;;;;;3541498;40;20030;-66
2021/05/11 03:36:48;;;;;;;1.70;1.30;;;17.40;75.00;;;;;;3546286;40;20414;-67
2021/05/11 03:39:14;;;;;;;3.15;1.73;;;17.40;75.70;;;;;;3544870;40;20030;-68
2021/05/11 03:41:44;;;;;;;2.65;1.92;;;17.50;76.10;;;;;;3545122;40;20039;-68
2021/05/11 03:44:15;;;;;;;2.08;1.60;;;17.50;73.70;;;;;;3545079;40;20064;-68
2021/05/11 03:46:41;;;;;;;1.45;1.30;;;17.40;74.50;;;;;;3547035;40;20049;-69
2021/05/11 03:49:08;;;;;;;2.67;1.52;;;17.50;73.60;;;;;;3546501;40;20030;-67
2021/05/11 03:51:37;;;;;;;2.05;1.50;;;17.50;73.90;;;;;;3545821;40;20041;-69
2021/05/11 03:54:05;;;;;;;2.45;1.30;;;17.50;74.50;;;;;;3543753;40;20407;-68
2021/05/11 03:56:31;;;;;;;2.20;1.63;;;17.60;73.00;;;;;;3545112;40;20033;-68
2021/05/11 03:58:58;;;;;;;2.28;1.35;;;17.70;73.00;;;;;;3544284;40;20033;-67
2021/05/11 04:01:23;;;;;;;2.83;1.63;;;17.70;74.10;;;;;;3545437;40;20034;-67
2021/05/11 04:03:49;;;;;;;2.00;1.60;;;17.80;74.00;;;;;;3544439;40;20772;-68
2021/05/11 04:06:15;;;;;;;2.97;2.20;;;17.80;72.30;;;;;;3546014;40;20038;-67
2021/05/11 04:08:47;;;;;;;2.75;1.60;;;17.80;72.50;;;;;;3543180;40;20026;-68
2021/05/11 04:14:17;;;;;;;3.95;1.73;;;17.90;72.20;;;;;;3544212;40;20038;-68
2021/05/11 04:16:43;;;;;;;2.70;1.80;;;17.90;70.90;;;;;;3545547;40;20919;-67
2021/05/11 04:19:10;;;;;;;6.50;2.08;;;18.00;71.20;;;;;;3543270;40;20038;-67
2021/05/11 04:21:36;;;;;;;2.10;1.77;;;18.10;70.40;;;;;;3547331;40;20402;-68
2021/05/11 04:24:03;;;;;;;2.22;1.75;;;18.10;70.70;;;;;;3541407;40;20400;-66
2021/05/11 04:26:28;;;;;;;4.93;1.80;;;18.10;70.40;;;;;;3544342;40;20351;-66
2021/05/11 04:28:54;;;;;;;2.10;1.90;;;18.10;70.30;;;;;;3543258;40;20026;-67
2021/05/11 04:31:20;;;;;;;4.15;2.20;;;18.00;70.40;;;;;;3547580;40;20112;-68
2021/05/11 04:33:46;;;;;;;2.60;1.70;;;18.00;69.80;;;;;;3542695;40;20132;-67
2021/05/11 04:36:14;;;;;;;4.85;2.42;;;18.10;70.40;;;;;;3542973;40;20153;-67
2021/05/11 04:38:40;;;;;;;2.70;2.00;;;18.20;69.90;;;;;;3541868;40;20552;-67
2021/05/11 04:41:06;;;;;;;4.45;2.13;;;18.20;70.20;;;;;;3546078;40;20033;-66
2021/05/11 04:43:35;;;;;;;4.95;2.15;;;18.30;69.60;;;;;;3544207;40;20141;-66
2021/05/11 04:46:10;;;;;;;2.45;2.25;;;18.30;70.00;;;;;;3543780;40;20029;-66
2021/05/11 04:48:36;;;;;;;2.20;1.70;;;18.40;69.70;;;;;;3544120;40;20112;-67
2021/05/11 04:51:01;;;;;;;3.85;2.78;;;18.40;70.10;;;;;;3546603;40;20034;-70
2021/05/11 04:53:27;;;;;;;5.72;3.17;;;18.40;68.50;;;;;;3546383;40;20038;-67
2021/05/11 04:55:53;;;;;;;8.13;3.40;;;18.50;68.80;;;;;;3547023;40;20030;-66
2021/05/11 04:58:19;;;;;;;4.68;2.80;;;18.50;68.10;;;;;;3546530;40;20030;-65
2021/05/11 05:00:44;;;;;;;3.33;2.42;;;18.50;67.90;;;;;;3546063;40;20033;-65
2021/05/11 05:03:14;;;;;;;2.45;2.25;;;18.50;68.20;;;;;;3547896;40;20019;-65
2021/05/11 05:05:40;;;;;;;5.07;2.35;;;18.60;68.50;;;;;;3545642;40;20070;-65
2021/05/11 05:08:06;;;;;;;4.00;2.97;;;18.60;67.90;;;;;;3546414;40;20029;-67
2021/05/11 05:10:31;;;;;;;4.70;2.58;;;18.60;67.20;;;;;;3550630;40;20074;-65
2021/05/11 05:12:57;;;;;;;4.20;2.70;;;18.70;67.50;;;;;;3544819;40;20120;-65
2021/05/11 05:15:23;;;;;;;5.03;2.17;;;18.80;67.30;;;;;;3544920;40;20054;-66
2021/05/11 05:17:48;;;;;;;4.75;3.53;;;18.90;66.90;;;;;;3547453;40;20022;-67
2021/05/11 05:20:14;;;;;;;2.10;1.88;;;19.10;66.30;;;;;;3545208;40;20029;-67
2021/05/11 05:22:41;;;;;;;7.60;2.85;;;19.30;67.40;;;;;;3549414;40;20026;-67
2021/05/11 05:25:19;;;;;;;8.43;2.70;;;19.50;65.30;;;;;;3546578;40;20108;-67
2021/05/11 05:27:58;;;;;;;2.70;2.17;;;19.70;65.40;;;;;;3548159;40;20023;-67
2021/05/11 05:30:24;;;;;;;3.50;2.03;;;19.70;64.50;;;;;;3546066;40;20424;-67
2021/05/11 05:33:01;;;;;;;3.05;2.13;;;19.50;64.90;;;;;;3548218;40;20046;-67
2021/05/11 05:35:26;;;;;;;3.28;2.15;;;19.40;65.20;;;;;;3550363;40;20148;-67
2021/05/11 05:37:52;;;;;;;6.70;2.60;;;19.40;67.00;;;;;;3545957;40;20722;-65
2021/05/11 05:40:20;;;;;;;4.70;2.53;;;19.50;65.60;;;;;;3544762;40;20026;-67
2021/05/11 05:42:47;;;;;;;2.58;2.20;;;19.40;65.90;;;;;;3546969;40;20058;-66
2021/05/11 05:45:13;;;;;;;4.32;2.17;;;19.50;67.20;;;;;;3548678;40;20038;-67
2021/05/11 05:47:51;;;;;;;4.40;2.00;;;19.40;65.50;;;;;;3549090;40;20135;-67
2021/05/11 05:50:30;;;;;;;4.18;2.50;;;19.40;67.30;;;;;;3546896;40;20339;-66
2021/05/11 05:53:02;;;;;;;3.63;2.55;;;19.50;66.30;;;;;;3546949;40;20038;-68
2021/05/11 05:55:29;;;;;;;5.20;2.63;;;19.60;65.60;;;;;;3547590;40;20374;-67
2021/05/11 05:57:56;;;;;;;3.17;2.40;;;19.60;64.70;;;;;;3545604;40;20049;-66
2021/05/11 06:00:22;;;;;;;405.90;73.03;;;19.60;65.10;;;;;;3547670;40;20037;-67
2021/05/11 06:02:51;;;;;;;46.72;11.52;;;19.70;65.80;;;;;;3547791;40;20045;-66
2021/05/11 06:05:17;;;;;;;7.90;3.83;;;19.90;66.60;;;;;;3547234;40;20041;-66
2021/05/11 06:07:43;;;;;;;3.60;2.40;;;20.10;64.80;;;;;;3547359;40;20752;-67
2021/05/11 06:10:11;;;;;;;5.93;3.22;;;20.30;65.80;;;;;;3546752;40;20046;-67
2021/05/11 06:13:06;;;;;;;4.47;2.63;;;20.40;65.90;;;;;;3548391;40;20054;-67
2021/05/11 06:18:11;;;;;;;4.43;2.58;;;20.50;63.20;;;;;;3547059;40;20030;-67
2021/05/11 06:20:37;;;;;;;4.82;3.83;;;20.60;65.00;;;;;;3546453;40;20663;-67
2021/05/11 06:23:03;;;;;;;3.97;3.10;;;20.60;64.20;;;;;;3548232;40;20034;-67
2021/05/11 06:25:28;;;;;;;3.95;3.30;;;20.70;63.60;;;;;;3549774;40;20040;-67
2021/05/11 06:27:58;;;;;;;4.47;2.60;;;20.70;62.50;;;;;;3546893;40;20034;-68
2021/05/11 06:30:24;;;;;;;6.18;4.30;;;20.80;62.50;;;;;;3545589;40;20062;-67
2021/05/11 06:32:50;;;;;;;4.43;3.08;;;20.60;63.60;;;;;;3548105;40;20030;-66
2021/05/11 06:35:16;;;;;;;6.68;2.92;;;20.70;63.20;;;;;;3545929;40;20106;-67
2021/05/11 06:37:41;;;;;;;9.07;3.00;;;20.70;63.40;;;;;;3548432;40;20557;-69
2021/05/11 06:40:08;;;;;;;7.25;3.03;;;20.90;63.20;;;;;;3548055;40;20043;-67
2021/05/11 06:42:36;;;;;;;6.15;3.00;;;21.00;61.60;;;;;;3547169;40;20033;-68
2021/05/11 06:54:58;;;;;;;6.43;3.20;;;21.30;62.20;;;;;;3546455;40;20210;-67
2021/05/11 06:57:25;;;;;;;4.03;2.60;;;21.40;62.40;;;;;;3544691;40;20187;-67
2021/05/11 06:59:50;;;;;;;5.10;3.42;;;21.60;61.20;;;;;;3545543;40;20816;-68
2021/05/11 07:02:16;;;;;;;4.40;3.05;;;21.90;60.60;;;;;;3548280;40;20037;-68
2021/05/11 07:04:43;;;;;;;6.85;2.90;;;22.20;59.40;;;;;;3544204;40;20904;-68
2021/05/11 07:07:10;;;;;;;3.95;2.78;;;22.50;58.40;;;;;;3546321;40;20038;-66
2021/05/11 07:14:56;;;;;;;4.30;2.72;;;23.30;55.80;;;;;;3543268;40;20038;-68
2021/05/11 07:17:22;;;;;;;4.55;2.88;;;23.50;55.40;;;;;;3546681;40;20084;-68
2021/05/11 07:19:48;;;;;;;7.70;3.00;;;23.70;55.00;;;;;;3547607;40;20830;-66
2021/05/11 07:22:13;;;;;;;6.07;2.78;;;23.80;54.00;;;;;;3546673;40;20652;-67
2021/05/11 07:24:39;;;;;;;5.85;2.90;;;23.80;54.90;;;;;;3547314;40;20390;-67
2021/05/11 07:32:00;;;;;;;4.55;2.53;;;23.90;54.10;;;;;;3544968;40;20030;-67
2021/05/11 07:34:27;;;;;;;6.00;2.92;;;23.80;53.80;;;;;;3544216;40;20038;-67
2021/05/11 07:36:53;;;;;;;4.93;2.80;;;23.80;54.30;;;;;;3545782;40;20494;-68
2021/05/11 07:39:21;;;;;;;4.30;3.10;;;23.70;53.80;;;;;;3542395;40;20085;-68
2021/05/11 07:41:46;;;;;;;7.05;2.90;;;23.80;53.90;;;;;;3546173;40;20036;-67
2021/05/11 07:44:13;;;;;;;5.25;2.30;;;23.90;53.90;;;;;;3543424;40;20034;-67
2021/05/11 07:49:41;;;;;;;4.70;3.15;;;23.90;53.80;;;;;;3544551;40;20734;-67
2021/05/11 08:03:25;;;;;;;6.10;3.15;;;24.40;52.40;;;;;;3542689;40;20093;-67
2021/05/11 08:06:12;;;;;;;9.45;3.00;;;24.40;53.20;;;;;;3540579;40;20042;-67
2021/05/11 08:16:56;;;;;;;3.17;2.58;;;24.40;53.00;;;;;;3543939;40;20042;-67
2021/05/11 08:19:50;;;;;;;7.03;3.40;;;24.40;54.00;;;;;;3548319;40;20039;-68
2021/05/11 08:30:14;;;;;;;7.82;3.13;;;24.60;53.50;;;;;;3544899;40;20038;-67
2021/05/11 08:32:39;;;;;;;9.32;3.55;;;24.50;53.60;;;;;;3545415;40;20022;-68
2021/05/11 08:35:07;;;;;;;9.82;3.75;;;24.70;53.70;;;;;;3547150;40;20697;-72
2021/05/11 08:37:34;;;;;;;10.90;5.00;;;25.00;54.10;;;;;;3546426;40;20049;-68
2021/05/11 08:40:00;;;;;;;6.75;3.80;;;25.00;52.70;;;;;;3547622;40;20029;-67
2021/05/11 08:42:26;;;;;;;8.60;4.85;;;25.10;52.00;;;;;;3549177;40;20038;-68
2021/05/11 08:44:52;;;;;;;30.48;7.78;;;25.20;51.40;;;;;;3546602;40;20316;-66
2021/05/11 08:47:19;;;;;;;7.53;3.90;;;25.30;52.70;;;;;;3547377;40;20026;-67
2021/05/11 08:49:46;;;;;;;10.85;5.47;;;25.40;51.60;;;;;;3545312;40;20181;-67
2021/05/11 08:55:15;;;;;;;8.57;4.03;;;25.70;51.10;;;;;;3546561;40;20088;-68
2021/05/11 09:25:19;;;;;;;4.80;2.50;;;25.60;51.30;;;;;;3544806;40;20026;-65
2021/05/11 09:28:04;;;;;;;8.63;3.63;;;25.70;52.60;;;;;;3545299;40;20117;-65
2021/05/11 09:31:19;;;;;;;7.53;3.33;;;25.90;51.80;;;;;;3544560;40;20061;-64
2021/05/11 09:33:49;;;;;;;8.55;4.05;;;26.10;51.20;;;;;;3541881;40;20042;-65
2021/05/11 10:48:26;;;;;;;7.30;4.05;;;28.00;47.00;;;;;;3540627;40;20097;-65
2021/05/11 10:51:03;;;;;;;6.18;3.80;;;27.70;48.40;;;;;;3548638;40;20462;-65
2021/05/11 10:53:39;;;;;;;7.18;3.72;;;27.40;48.90;;;;;;3545817;40;20141;-65
2021/05/11 10:56:20;;;;;;;;;;;27.30;49.60;;;;;;3544750;40;20392;-66
2021/05/11 10:59:14;;;;;;;9.32;3.58;;;27.40;48.20;;;;;;3547777;40;19974;-66
2021/05/11 11:01:44;;;;;;;8.85;3.25;;;27.60;48.40;;;;;;3541174;40;20042;-64
2021/05/11 11:04:16;;;;;;;6.80;3.45;;;27.60;47.50;;;;;;3542783;40;20027;-66
2021/05/11 11:06:57;;;;;;;6.85;3.70;;;27.50;48.60;;;;;;3544639;40;20026;-67
2021/05/11 11:09:23;;;;;;;4.68;3.28;;;27.50;47.80;;;;;;3547121;40;20023;-66
2021/05/11 11:11:50;;;;;;;5.45;3.30;;;27.30;49.00;;;;;;3547755;40;20030;-67
2021/05/11 11:14:17;;;;;;;11.45;3.60;;;27.20;49.20;;;;;;3547548;40;20068;-65
2021/05/11 11:16:44;;;;;;;6.30;3.00;;;27.20;49.40;;;;;;3545726;40;20140;-68
2021/05/11 11:19:12;;;;;;;7.88;3.83;;;27.20;48.50;;;;;;3546174;40;20493;-67
2021/05/11 11:23:32;;;;;;;8.73;3.53;;;27.00;48.00;;;;;;3546039;40;20038;-68
2021/05/11 11:24:34;;;;;;;7.70;3.47;;;26.90;49.60;;;;;;3546836;40;20151;-68
2021/05/11 11:27:00;;;;;;;5.13;3.30;;;26.80;49.90;;;;;;3548808;40;20779;-68
2021/05/11 11:29:27;;;;;;;4.43;3.50;;;26.60;49.50;;;;;;3544687;40;20084;-68
2021/05/11 11:31:54;;;;;;;6.00;3.05;;;26.60;50.20;;;;;;3542126;40;20864;-68
2021/05/11 11:34:35;;;;;;;5.18;2.80;;;26.40;49.50;;;;;;3545943;40;20450;-68
2021/05/11 11:37:04;;;;;;;5.65;2.90;;;26.30;49.90;;;;;;3540613;40;20038;-68
2021/05/11 11:39:33;;;;;;;6.68;3.38;;;26.30;49.80;;;;;;3544324;40;20038;-65
2021/05/11 11:42:06;;;;;;;4.88;3.42;;;26.30;49.80;;;;;;3541796;40;20030;-65
2021/05/11 11:44:39;;;;;;;3.22;2.70;;;26.30;49.80;;;;;;3544162;40;20497;-65
2021/05/11 11:47:06;;;;;;;8.40;3.47;;;26.30;49.90;;;;;;3542669;40;20026;-65
2021/05/11 11:49:38;;;;;;;6.13;2.95;;;26.50;50.90;;;;;;3541316;40;20035;-66
2021/05/11 11:54:45;;;;;;;5.03;2.75;;;26.60;50.60;;;;;;3547249;40;20045;-65
2021/05/11 12:00:06;;;;;;;8.38;3.50;;;26.90;50.40;;;;;;3544809;40;20093;-67
2021/05/11 12:03:02;;;;;;;4.10;2.92;;;27.00;49.10;;;;;;3544064;40;20050;-67
2021/05/11 12:05:33;;;;;;;8.15;3.10;;;27.10;49.70;;;;;;3548801;40;20074;-65
2021/05/11 12:08:21;;;;;;;8.30;3.58;;;27.10;50.00;;;;;;3547272;40;20120;-66
2021/05/11 12:10:46;;;;;;;6.13;3.47;;;27.20;49.90;;;;;;3544242;40;20049;-68
2021/05/11 12:13:14;;;;;;;5.00;3.28;;;27.30;50.10;;;;;;3546334;40;20046;-68
2021/05/11 12:15:40;;;;;;;6.43;3.80;;;27.40;49.50;;;;;;3544235;40;20516;-68
2021/05/11 12:18:14;;;;;;;5.68;3.53;;;27.50;48.40;;;;;;3541393;40;20038;-68
2021/05/11 12:20:40;;;;;;;5.07;3.85;;;27.40;48.60;;;;;;3547104;40;20038;-68
2021/05/11 12:23:16;;;;;;;6.53;4.10;;;27.30;49.10;;;;;;3543787;40;20122;-69
2021/05/11 12:25:44;;;;;;;3.97;3.03;;;27.30;49.10;;;;;;3545926;40;20874;-68
2021/05/11 12:28:10;;;;;;;4.90;3.22;;;27.30;48.70;;;;;;3542001;40;20022;-67
2021/05/11 12:30:40;;;;;;;6.05;3.30;;;27.30;48.90;;;;;;3540509;40;20030;-68
2021/05/11 12:33:11;;;;;;;9.77;4.07;;;27.30;49.40;;;;;;3545022;40;20034;-68
2021/05/11 12:35:39;;;;;;;8.02;3.00;;;27.20;50.40;;;;;;3546896;40;20041;-68
2021/05/11 12:38:19;;;;;;;8.32;3.30;;;27.30;50.10;;;;;;3548364;40;20026;-69
2021/05/11 12:41:13;;;;;;;7.70;3.70;;;27.30;50.30;;;;;;3543318;40;20073;-68
2021/05/11 12:43:48;;;;;;;4.53;2.92;;;27.30;50.20;;;;;;3541809;40;20050;-67
2021/05/11 12:46:17;;;;;;;6.13;3.28;;;27.30;49.90;;;;;;3547192;40;20034;-67
2021/05/11 12:48:53;;;;;;;3.50;2.95;;;27.30;49.90;;;;;;3545197;40;20036;-67
2021/05/11 12:51:40;;;;;;;8.35;3.35;;;27.30;50.30;;;;;;3547952;40;20108;-66
2021/05/11 12:54:29;;;;;;;4.90;3.10;;;27.40;50.90;;;;;;3549312;40;20066;-68
2021/05/11 12:59:53;;;;;;;3.45;2.70;;;27.50;49.00;;;;;;3544466;40;20089;-66
2021/05/11 13:16:23;;;;;;;4.80;3.10;;;27.90;50.90;;;;;;3547384;40;20351;-64
2021/05/11 13:22:15;;;;;;;4.78;3.17;;;28.00;49.20;;;;;;3547924;40;20054;-64
2021/05/11 13:27:29;;;;;;;4.60;3.22;;;27.80;48.50;;;;;;3544702;40;20309;-65
2021/05/11 13:35:08;;;;;;;3.40;2.67;;;27.90;48.80;;;;;;3544853;40;20023;-65
2021/05/11 13:37:34;;;;;;;9.95;3.80;;;27.90;48.50;;;;;;3543515;40;20034;-65
2021/05/11 13:40:01;;;;;;;5.85;3.30;;;27.90;48.40;;;;;;3547246;40;20034;-65
2021/05/11 13:42:27;;;;;;;6.65;3.28;;;27.90;49.70;;;;;;3548501;40;20025;-65
2021/05/11 13:44:54;;;;;;;4.13;3.10;;;27.90;50.20;;;;;;3549655;40;20375;-65
2021/05/11 13:47:20;;;;;;;4.78;3.10;;;28.00;49.50;;;;;;3547991;40;20014;-65
2021/05/11 13:49:50;;;;;;;4.75;3.00;;;28.00;48.70;;;;;;3547007;40;20069;-65
2021/05/11 13:52:15;;;;;;;5.30;3.40;;;27.90;49.20;;;;;;3545537;40;20034;-65
2021/05/11 13:54:42;;;;;;;5.47;3.03;;;27.90;49.60;;;;;;3546093;40;20034;-65
2021/05/11 14:02:40;;;;;;;8.48;3.67;;;28.00;50.50;;;;;;3544521;40;20131;-65
2021/05/11 14:05:07;;;;;;;6.63;3.08;;;28.10;50.40;;;;;;3544749;40;20027;-65
2021/05/11 14:07:33;;;;;;;5.78;3.45;;;28.10;50.40;;;;;;3541877;40;20041;-66
2021/05/11 14:09:59;;;;;;;6.60;3.05;;;28.10;50.50;;;;;;3540162;40;20054;-65
2021/05/11 14:12:25;;;;;;;9.88;4.30;;;28.10;51.10;;;;;;3543520;40;20502;-65
2021/05/11 14:14:50;;;;;;;9.07;4.30;;;28.10;49.80;;;;;;3542252;40;20104;-65
2021/05/11 14:17:16;;;;;;;8.60;4.05;;;28.00;50.10;;;;;;3548126;40;20053;-66
2021/05/11 14:19:42;;;;;;;6.07;3.72;;;27.90;50.20;;;;;;3547102;40;20053;-65
2021/05/11 14:22:08;;;;;;;5.82;4.10;;;27.80;50.70;;;;;;3542183;40;20117;-65
2021/05/11 14:24:34;;;;;;;7.00;3.22;;;27.70;50.40;;;;;;3543389;40;20037;-65
2021/05/11 14:26:59;;;;;;;6.38;3.40;;;27.70;50.90;;;;;;3547409;40;20047;-65
2021/05/11 14:29:25;;;;;;;6.35;3.10;;;27.60;51.40;;;;;;3547133;40;20045;-66
2021/05/11 14:31:51;;;;;;;9.32;3.45;;;27.50;51.20;;;;;;3546406;40;20042;-65
2021/05/11 14:34:17;;;;;;;6.43;3.58;;;27.50;51.30;;;;;;3549627;40;20430;-65
2021/05/11 14:36:43;;;;;;;5.57;3.38;;;27.50;51.30;;;;;;3544736;40;20625;-65
2021/05/11 14:39:09;;;;;;;7.63;3.45;;;27.40;50.40;;;;;;3544389;40;20104;-65
2021/05/11 14:41:35;;;;;;;6.50;3.70;;;27.30;50.50;;;;;;3547728;40;20045;-65
2021/05/11 14:44:01;;;;;;;3.25;2.95;;;27.20;51.10;;;;;;3546889;40;20714;-65
2021/05/11 14:46:28;;;;;;;4.07;3.33;;;27.10;51.20;;;;;;3549096;40;20970;-65
2021/05/11 14:48:54;;;;;;;4.30;3.40;;;27.00;51.40;;;;;;3548184;40;20404;-65
2021/05/11 14:51:19;;;;;;;6.50;3.45;;;27.00;51.10;;;;;;3546037;40;20034;-66
2021/05/11 14:53:47;;;;;;;3.20;2.80;;;26.90;50.80;;;;;;3543943;40;20403;-65
2021/05/11 14:56:12;;;;;;;4.97;3.50;;;26.80;51.50;;;;;;3546633;40;20038;-66
2021/05/11 14:58:38;;;;;;;3.40;2.92;;;26.80;51.60;;;;;;3545665;40;20297;-65
2021/05/11 15:01:04;;;;;;;8.38;3.47;;;26.80;51.80;;;;;;3546286;40;20045;-66
2021/05/11 15:03:30;;;;;;;6.30;3.83;;;26.70;52.30;;;;;;3546549;40;20334;-65
2021/05/11 15:05:56;;;;;;;9.65;3.67;;;26.70;51.60;;;;;;3545730;40;20034;-65
2021/05/11 15:08:22;;;;;;;5.18;3.33;;;26.70;52.20;;;;;;3545952;40;20132;-65
2021/05/11 15:10:49;;;;;;;7.05;3.50;;;26.70;52.40;;;;;;3542794;40;20120;-65
2021/05/11 15:13:15;;;;;;;6.13;3.08;;;26.70;52.20;;;;;;3546785;40;20392;-65
2021/05/11 15:15:45;;;;;;;4.63;3.00;;;26.60;53.00;;;;;;3542466;40;20449;-65
2021/05/11 15:18:10;;;;;;;4.65;3.00;;;26.50;52.40;;;;;;3544892;40;20371;-65
2021/05/11 15:20:36;;;;;;;5.15;3.65;;;26.50;54.10;;;;;;3546660;40;20046;-66
2021/05/11 15:23:03;;;;;;;5.95;3.22;;;26.40;52.60;;;;;;3542355;40;20049;-65
2021/05/11 15:25:29;;;;;;;5.80;3.28;;;26.40;53.70;;;;;;3543956;40;20045;-66
2021/05/11 15:27:55;;;;;;;7.70;3.95;;;26.30;53.80;;;;;;3548442;40;20066;-65
2021/05/11 15:30:23;;;;;;;6.55;3.22;;;26.30;54.10;;;;;;3546574;40;20308;-65
2021/05/11 15:32:55;;;;;;;6.22;3.58;;;26.30;53.80;;;;;;3546278;40;20493;-65
2021/05/11 15:35:40;;;;;;;8.05;3.40;;;26.20;53.20;;;;;;3539764;40;20038;-65
2021/05/11 15:38:06;;;;;;;6.45;3.03;;;26.30;52.40;;;;;;3541648;40;20804;-66
2021/05/11 15:40:36;;;;;;;6.05;3.20;;;26.20;53.40;;;;;;3547410;40;20029;-66
2021/05/11 15:43:04;;;;;;;3.97;2.83;;;26.20;53.50;;;;;;3545724;40;20723;-66
2021/05/11 15:45:30;;;;;;;6.75;3.65;;;26.20;54.20;;;;;;3543760;40;20030;-66
2021/05/11 15:47:56;;;;;;;4.07;3.13;;;26.20;53.20;;;;;;3542435;40;20065;-66
2021/05/11 15:50:28;;;;;;;8.13;3.13;;;26.20;53.60;;;;;;3543162;40;20306;-65
2021/05/11 15:52:56;;;;;;;4.13;3.55;;;26.10;53.20;;;;;;3542764;40;20657;-66
2021/05/11 15:55:23;;;;;;;8.38;3.00;;;26.10;52.70;;;;;;3545085;40;20046;-65
2021/05/11 15:57:50;;;;;;;7.18;3.00;;;26.00;53.60;;;;;;3546790;40;20026;-66
2021/05/11 16:00:16;;;;;;;3.95;2.88;;;25.90;54.10;;;;;;3546564;40;20081;-67
2021/05/11 16:02:42;;;;;;;6.45;3.10;;;25.80;54.70;;;;;;3547595;40;20031;-65
2021/05/11 16:05:09;;;;;;;3.40;2.75;;;25.80;55.00;;;;;;3543045;40;20400;-66
2021/05/11 16:07:35;;;;;;;6.97;3.35;;;25.70;55.30;;;;;;3545222;40;20027;-67
2021/05/11 16:10:04;;;;;;;4.43;2.60;;;25.60;55.70;;;;;;3543498;40;20039;-66
2021/05/11 16:12:29;;;;;;;3.97;2.88;;;25.60;55.30;;;;;;3545496;40;20070;-66
2021/05/11 16:14:56;;;;;;;3.72;2.60;;;25.60;55.40;;;;;;3546148;40;20080;-65
2021/05/11 16:17:21;;;;;;;9.50;3.17;;;25.50;55.50;;;;;;3545813;40;20505;-66
2021/05/11 16:19:48;;;;;;;7.13;2.88;;;25.40;56.00;;;;;;3543495;40;20049;-67
2021/05/11 16:22:13;;;;;;;3.95;3.00;;;25.30;55.50;;;;;;3546468;40;20030;-66
2021/05/11 16:24:40;;;;;;;3.85;3.22;;;25.10;57.80;;;;;;3547134;40;20135;-66
2021/05/11 16:27:06;;;;;;;3.70;3.28;;;25.10;56.70;;;;;;3546586;40;20038;-67
2021/05/11 16:29:31;;;;;;;3.70;2.70;;;25.00;58.30;;;;;;3546915;40;20031;-66
2021/05/11 16:31:58;;;;;;;4.55;2.80;;;25.00;58.40;;;;;;3546776;40;20026;-65
2021/05/11 16:34:26;;;;;;;3.60;2.83;;;25.00;58.30;;;;;;3543959;40;20030;-66
2021/05/11 16:36:52;;;;;;;4.72;3.35;;;24.90;58.80;;;;;;3542499;40;20734;-66
2021/05/11 16:39:18;;;;;;;3.83;3.45;;;24.80;59.40;;;;;;3547545;40;20021;-66
2021/05/11 16:41:43;;;;;;;6.00;3.13;;;24.70;60.10;;;;;;3545479;40;20442;-66
2021/05/11 16:44:09;;;;;;;7.03;3.42;;;24.60;60.40;;;;;;3545824;40;20046;-67
2021/05/11 16:46:35;;;;;;;5.13;3.60;;;24.50;60.80;;;;;;3543823;40;20030;-66
2021/05/11 16:49:01;;;;;;;7.43;4.32;;;24.40;61.10;;;;;;3547876;40;20033;-66
2021/05/11 16:51:27;;;;;;;5.03;3.67;;;24.30;61.00;;;;;;3548372;40;20750;-66
2021/05/11 16:53:53;;;;;;;4.50;3.28;;;24.20;60.20;;;;;;3548382;40;20038;-65
2021/05/11 16:56:19;;;;;;;5.82;3.03;;;24.20;61.40;;;;;;3545564;40;20036;-65
2021/05/11 16:58:45;;;;;;;5.00;3.47;;;24.10;63.90;;;;;;3545915;40;20046;-66
2021/05/11 17:01:11;;;;;;;6.05;3.30;;;24.10;62.00;;;;;;3547307;40;20191;-66